[أخبـار] هبوط قاسي لطائرة الخطوط البريطانية A350 بمطار بن جوريون ويتسبب بأضرار - :: Flying Way ::


إضافة رد
 
أدوات الموضوع إبحث في الموضوع
قديم 22-01-2020, 11:12 AM  
  مشاركة [ 1 ]
الصورة الرمزية محمد احمد عسيري
محمد احمد عسيري محمد احمد عسيري غير متواجد حالياً
Flying Way
 
تاريخ التسجيل: 16 - 03 - 2011
المشاركات: 13,456
شكر غيره: 3,012
تم شكره 6,641 مرة في 3,864 مشاركة
معدل تقييم المستوى: 14606
محمد احمد عسيري يستحق الثقة والتقديرمحمد احمد عسيري يستحق الثقة والتقديرمحمد احمد عسيري يستحق الثقة والتقديرمحمد احمد عسيري يستحق الثقة والتقديرمحمد احمد عسيري يستحق الثقة والتقديرمحمد احمد عسيري يستحق الثقة والتقديرمحمد احمد عسيري يستحق الثقة والتقديرمحمد احمد عسيري يستحق الثقة والتقديرمحمد احمد عسيري يستحق الثقة والتقديرمحمد احمد عسيري يستحق الثقة والتقديرمحمد احمد عسيري يستحق الثقة والتقدير

مشاهدة أوسمتي

محمد احمد عسيري محمد احمد عسيري غير متواجد حالياً
Flying Way


الصورة الرمزية محمد احمد عسيري

مشاهدة ملفه الشخصي
تاريخ التسجيل: 16 - 03 - 2011
المشاركات: 13,456
شكر غيره: 3,012
تم شكره 6,641 مرة في 3,864 مشاركة
معدل تقييم المستوى: 14606
محمد احمد عسيري يستحق الثقة والتقديرمحمد احمد عسيري يستحق الثقة والتقديرمحمد احمد عسيري يستحق الثقة والتقديرمحمد احمد عسيري يستحق الثقة والتقديرمحمد احمد عسيري يستحق الثقة والتقديرمحمد احمد عسيري يستحق الثقة والتقديرمحمد احمد عسيري يستحق الثقة والتقديرمحمد احمد عسيري يستحق الثقة والتقديرمحمد احمد عسيري يستحق الثقة والتقديرمحمد احمد عسيري يستحق الثقة والتقديرمحمد احمد عسيري يستحق الثقة والتقدير
Exclamation هبوط قاسي لطائرة الخطوط البريطانية A350 بمطار بن جوريون ويتسبب بأضرار


A British Airways A350-1000, registration G-XWBD performing flight BA-163 (dep Jan 19th) from London Heathrow,EN (UK) to Tel Aviv (Israel), landed on Tel Aviv's runway 12 but suffered a hard landing. The aircraft rolled out without further incident and taxied to the apron.

The return flight was cancelled. The aircraft is still on the ground in Tel Aviv about 18 hours after landing.

A passenger reported the ceiling panels came down in the aft galley at touch down.

According to information The Aviation Herald received the hard landing checks revealed damage to the aircraft.

Israel's AIAI confirmed the hard landing and damage to the aircraft.


Metars:
LLBG 200550Z 18011KT 9000 FEW033 12/10 Q1023 TEMPO 3000 RA SCT005 FEW015TCU BKN025 RMK SCT064 BKN079 RERA=
LLBG 200520Z 19008KT 7000 -RA FEW006 SCT021 11/10 Q1023 RERA TEMPO 3000 RA SCT005 BKN015 RMK BKN060=
LLBG 200450Z 15008KT 8000 SCT030 12/10 Q1022 TEMPO 3000 RA SCT005 BKN015 RMK BKN061=
LLBG 200420Z 17009KT 9000 FEW008 SCT029 BKN050 11/10 Q1023 RERA TEMPO 5000 RA SCT005 BKN015=
LLBG 200350Z 27004KT 200V320 6000 RA SCT006 BKN018 11/10 Q1023 NOSIG=
LLBG 200320Z 17011KT 6000 RA FEW010 SCT026 BKN048 12/10 Q1022 TEMPO 5000 RA FEW015 BKN030=
LLBG 200250Z 18010KT 7000 -RA FEW021 SCT025 BKN050 12/10 Q1022 TEMPO 5000 RA FEW015 BKN030=
LLBG 200220Z 16007KT 9000 FEW040 12/10 Q1022 TEMPO 5000 RA FEW015 BKN030 RMK SCT054 BKN080 RERA=
LLBG 200150Z 18008KT 8000 -RA FEW013 SCT018 BKN028 12/10 Q1022 TEMPO 5000 RA FEW010 BKN020=
LLBG 200120Z 14009KT 9999 FEW015 SCT025 BKN034 12/10 Q1022 RERA TEMPO 5000 RA FEW010 BKN020=
LLBG 200050Z 17008KT 6000 RA FEW018 SCT022 BKN040 12/11 Q1022 NOSIG=
LLBG 200020Z 16008KT 9999 FEW023 SCT040 12/10 Q1022 TEMPO RA FEW020TCU BKN030 RMK RERA BKN060=
LLBG 192350Z 17009KT 9999 SCT030 12/10 Q1022 TEMPO RA FEW020TCU BKN030 RMK BKN070=
LLBG 192320Z 16007KT 9999 FEW040 12/10 Q1021 TEMPO RA FEW020TCU BKN030 RMK BKN060=
LLBG 192250Z 15010KT 9999 FEW038 13/11 Q1022 TEMPO -RA FEW020TCU BKN030 RMK RERA BKN060=
LLBG 192220Z 15007KT 9999 -RA FEW020 SCT040 12/10 Q1021 RERA NOSIG RMK BKN070=

https://avherald.com/h?article=4d23c7df&opt=0

الطائرة عمرها شهرين بالخدمة.
التوقيع  محمد احمد عسيري
محمد احمد عسيري غير متواجد حالياً   رد مع اقتباس
3 أعضاء قالوا شكراً لـ محمد احمد عسيري على المشاركة المفيدة:
AalzaiemX (22-01-2020), alzaiem (22-01-2020), nxman77 (23-01-2020)
إضافة رد


الذين يشاهدون محتوى الموضوع الآن : 1 ( الأعضاء 0 والزوار 1)
 
أدوات الموضوع إبحث في الموضوع
إبحث في الموضوع:

البحث المتقدم

الانتقال السريع

المواضيع المتشابهه
الموضوع كاتب الموضوع المنتدى مشاركات آخر مشاركة
[أخبـار] عودة حركة الملاحة الجوية بمطار نيوارك بعد توقف ساعتين عن العمل اثر هبوط قاسي لطائرة B757 وتضرر ببدن الطائرة محمد احمد عسيري السلامة الجوية Flight Safety 2 18-06-2019 11:08 AM
[أخبـار] الخطوط البريطانية تزيح الستار عن مقصورة درجة رجال الأعمال لطائرة إيرباص A350 محمد احمد عسيري المقالات الصحفية Rumours &News 0 27-03-2019 09:04 AM
[أخبـار] عامل عربة البوش باك بمطار امستردام يتسبب بأضرار للمحرك الايمن لطائرة B747-400 التابعة لشركة KLM محمد احمد عسيري المقالات الصحفية Rumours &News 0 23-10-2018 10:36 AM
[حـادث] حريق بعربة البوش باك يتسبب بأضرار بليغة لطائرة A340 التابعة لشركة لوفتهانزا بمطار فرانكفورت محمد احمد عسيري السلامة الجوية Flight Safety 0 11-06-2018 10:19 PM
هبوط اضطراري لطائرة A380 الخطوط البريطانية بفانكوفر محمد احمد عسيري السلامة الجوية Flight Safety 0 25-10-2016 05:58 PM


الساعة الآن 03:28 PM.
Powered by vBulletin® Version 3.8.11
Copyright ©2000 - 2022, vBulletin Solutions Inc.
حق العلم والمعرفة يعادل حق الحياة للأنسان - لذا نحن كمسؤلين في الشبكة متنازلون عن جميع الحقوق
All trademarks and copyrights held by respective owners. Member comments are owned by the poster.
خط الطيران 2004-2022

 
Copyright FlyingWay © 2020